createdAt,value
2023-03-19T00:00:38.428Z,7.26
2023-03-19T00:03:08.034Z,7.21
2023-03-19T00:05:36.627Z,7.21
2023-03-19T00:08:05.049Z,7.21
2023-03-19T00:10:33.192Z,7.18
2023-03-19T00:13:01.510Z,7.14
2023-03-19T00:15:29.619Z,7.12
2023-03-19T00:17:57.708Z,7.13
2023-03-19T00:20:27.480Z,7.13
2023-03-19T00:22:56.202Z,7.12
2023-03-19T00:25:24.299Z,7.13
2023-03-19T00:27:52.926Z,7.07
2023-03-19T00:30:21.494Z,7.05
2023-03-19T00:32:50.127Z,7.01
2023-03-19T00:35:18.286Z,6.98
2023-03-19T00:37:48.095Z,6.99
2023-03-19T00:40:16.522Z,6.94
2023-03-19T00:42:45.028Z,6.95
2023-03-19T00:45:14.296Z,6.94
2023-03-19T00:47:44.072Z,6.91
2023-03-19T00:50:13.140Z,6.88
2023-03-19T00:52:41.541Z,6.85
2023-03-19T00:55:11.974Z,6.83
2023-03-19T00:57:40.206Z,6.84
2023-03-19T01:00:10.899Z,6.82
2023-03-19T01:02:39.094Z,6.81
2023-03-19T01:05:08.341Z,6.78
2023-03-19T01:07:36.684Z,6.81
2023-03-19T01:10:06.180Z,6.82
2023-03-19T01:12:36.259Z,6.80
2023-03-19T01:15:05.564Z,6.75
2023-03-19T01:17:33.621Z,6.70
2023-03-19T01:20:01.788Z,6.66
2023-03-19T01:22:30.071Z,6.69
2023-03-19T01:24:58.591Z,6.65
2023-03-19T01:27:26.711Z,6.69
2023-03-19T01:29:56.419Z,6.69
2023-03-19T01:32:24.638Z,6.67
2023-03-19T01:34:53.797Z,6.68
2023-03-19T01:37:22.441Z,6.71
2023-03-19T01:39:50.647Z,6.69
2023-03-19T01:42:18.942Z,6.68
2023-03-19T01:44:48.019Z,6.67
2023-03-19T01:47:20.885Z,6.69
2023-03-19T01:49:54.852Z,6.61
2023-03-19T01:52:26.722Z,6.61
2023-03-19T01:54:57.494Z,6.64
2023-03-19T01:57:26.546Z,6.62
2023-03-19T01:59:57.709Z,6.59
2023-03-19T02:02:31.397Z,6.59
2023-03-19T02:05:02.955Z,6.59
2023-03-19T02:07:33.273Z,6.56
2023-03-19T02:10:03.513Z,6.55
2023-03-19T02:12:32.398Z,6.54
2023-03-19T02:15:00.926Z,6.52
2023-03-19T02:17:32.592Z,6.52
2023-03-19T02:20:06.392Z,6.50
2023-03-19T02:22:35.052Z,6.45
2023-03-19T02:25:07.855Z,6.49
2023-03-19T02:27:37.427Z,6.46
2023-03-19T02:30:20.183Z,6.45
2023-03-19T02:32:48.460Z,6.44
2023-03-19T02:35:16.800Z,6.39
2023-03-19T02:37:44.949Z,6.42
2023-03-19T02:40:19.653Z,6.42
2023-03-19T02:42:49.358Z,6.44
2023-03-19T02:45:17.756Z,6.45
2023-03-19T02:47:46.023Z,6.46
2023-03-19T02:50:14.448Z,6.42
2023-03-19T02:52:42.566Z,6.37
2023-03-19T02:55:11.354Z,6.35
2023-03-19T02:57:39.532Z,6.32
2023-03-19T03:00:11.205Z,6.31
2023-03-19T03:02:39.785Z,6.32
2023-03-19T03:05:09.305Z,6.30
2023-03-19T03:07:37.740Z,6.28
2023-03-19T03:10:06.375Z,6.26
2023-03-19T03:12:34.490Z,6.24
2023-03-19T03:15:02.616Z,6.27
2023-03-19T03:17:32.120Z,6.25
2023-03-19T03:20:00.428Z,6.25
2023-03-19T03:22:28.869Z,6.26
2023-03-19T03:24:57.090Z,6.24
2023-03-19T03:27:25.471Z,6.26
2023-03-19T03:29:53.742Z,6.26
2023-03-19T03:32:21.949Z,6.23
2023-03-19T03:34:51.635Z,6.22
2023-03-19T03:37:19.972Z,6.23
2023-03-19T03:39:48.335Z,6.22
2023-03-19T03:42:16.776Z,6.20
2023-03-19T03:44:44.947Z,6.20
2023-03-19T03:47:14.386Z,6.16
2023-03-19T03:49:42.804Z,6.18
2023-03-19T03:52:13.140Z,6.15
2023-03-19T03:54:41.556Z,6.18
2023-03-19T03:57:09.973Z,6.15
2023-03-19T03:59:38.192Z,6.12
2023-03-19T04:02:06.865Z,6.12
2023-03-19T04:04:35.150Z,6.09
2023-03-19T04:07:03.305Z,6.09
2023-03-19T04:09:33.125Z,6.10
2023-03-19T04:12:01.580Z,6.07
2023-03-19T04:14:29.828Z,6.08
2023-03-19T04:16:58.149Z,6.03
2023-03-19T04:19:27.368Z,6.03
2023-03-19T04:21:55.807Z,6.01
2023-03-19T04:24:23.922Z,6.02
2023-03-19T04:26:53.645Z,6.03
2023-03-19T04:29:22.678Z,6.00
2023-03-19T04:31:52.607Z,5.97
2023-03-19T04:34:21.102Z,5.94
2023-03-19T04:36:50.104Z,5.94
2023-03-19T04:39:18.227Z,5.92
2023-03-19T04:41:46.692Z,5.94
2023-03-19T04:44:16.164Z,5.91
2023-03-19T04:46:44.924Z,5.92
2023-03-19T04:49:13.412Z,5.87
2023-03-19T04:51:42.168Z,5.83
2023-03-19T04:54:11.116Z,5.86
2023-03-19T04:56:39.452Z,5.86
2023-03-19T04:59:07.900Z,5.86
2023-03-19T05:01:38.104Z,5.85
2023-03-19T05:04:07.359Z,5.83
2023-03-19T05:06:36.493Z,5.84
2023-03-19T05:09:05.422Z,5.83
2023-03-19T05:11:33.698Z,5.79
2023-03-19T05:14:02.000Z,5.76
2023-03-19T05:16:30.102Z,5.78
2023-03-19T05:18:59.632Z,5.77
2023-03-19T05:21:27.999Z,5.76
2023-03-19T05:23:57.368Z,5.73
2023-03-19T05:26:25.836Z,5.74
2023-03-19T05:28:53.984Z,5.72
2023-03-19T05:31:22.155Z,5.73
2023-03-19T05:33:50.740Z,5.73
2023-03-19T05:36:20.165Z,5.71
2023-03-19T05:38:48.445Z,5.72
2023-03-19T05:41:16.644Z,5.70
2023-03-19T05:43:44.754Z,5.70
2023-03-19T05:46:13.391Z,5.64
2023-03-19T05:48:42.434Z,5.67
2023-03-19T05:51:11.845Z,5.63
2023-03-19T05:53:41.380Z,5.64
2023-03-19T05:56:09.791Z,5.65
2023-03-19T05:58:37.933Z,5.64
2023-03-19T06:01:06.355Z,5.62
2023-03-19T06:03:34.605Z,5.60
2023-03-19T06:06:02.831Z,5.58
2023-03-19T06:08:31.232Z,5.60
2023-03-19T06:11:01.135Z,5.65
2023-03-19T06:13:29.334Z,5.63
2023-03-19T06:15:57.792Z,5.63
2023-03-19T06:18:26.114Z,5.58
2023-03-19T06:20:54.370Z,5.58
2023-03-19T06:23:22.558Z,5.56
2023-03-19T06:25:50.911Z,5.58
2023-03-19T06:28:20.627Z,5.58
2023-03-19T06:30:48.828Z,5.58
2023-03-19T06:33:17.054Z,5.62
2023-03-19T06:35:45.153Z,5.62
2023-03-19T06:38:13.318Z,5.62
2023-03-19T06:40:41.404Z,5.63
2023-03-19T06:43:09.541Z,5.63
2023-03-19T06:45:39.505Z,5.68
2023-03-19T06:48:08.015Z,5.71
2023-03-19T06:50:36.269Z,5.73
2023-03-19T06:53:04.451Z,5.78
2023-03-19T06:55:32.577Z,5.81
2023-03-19T06:58:00.745Z,5.85
2023-03-19T07:00:29.191Z,5.90
2023-03-19T07:02:58.786Z,5.93
2023-03-19T07:05:27.084Z,5.98
2023-03-19T07:07:55.330Z,6.02
2023-03-19T07:10:23.803Z,6.07
2023-03-19T07:12:52.020Z,6.07
2023-03-19T07:15:21.531Z,6.10
2023-03-19T07:17:49.921Z,6.13
2023-03-19T07:20:19.823Z,6.20
2023-03-19T07:22:48.000Z,6.21
2023-03-19T07:25:16.280Z,6.27
2023-03-19T07:27:44.687Z,6.28
2023-03-19T07:30:14.628Z,6.32
2023-03-19T07:32:43.084Z,6.34
2023-03-19T07:35:12.134Z,6.39
2023-03-19T07:37:41.648Z,6.41
2023-03-19T07:40:11.208Z,6.42
2023-03-19T07:42:39.391Z,6.48
2023-03-19T07:45:08.723Z,6.53
2023-03-19T07:47:36.862Z,6.57
2023-03-19T07:50:05.519Z,6.62
2023-03-19T07:52:33.546Z,6.65
2023-03-19T07:55:03.149Z,6.71
2023-03-19T07:57:33.118Z,6.73
2023-03-19T08:00:01.571Z,6.79
2023-03-19T08:02:29.735Z,6.80
2023-03-19T08:04:58.724Z,6.82
2023-03-19T08:07:26.807Z,6.88
2023-03-19T08:09:54.973Z,6.88
2023-03-19T08:12:24.434Z,6.90
2023-03-19T08:14:52.791Z,6.89
2023-03-19T08:17:21.471Z,6.98
2023-03-19T08:19:49.569Z,7.02
2023-03-19T08:22:17.720Z,7.07
2023-03-19T08:24:46.191Z,7.17
2023-03-19T08:27:14.429Z,7.19
2023-03-19T08:29:44.022Z,7.26
2023-03-19T08:32:12.205Z,7.35
2023-03-19T08:34:40.514Z,7.46
2023-03-19T08:37:08.766Z,7.54
2023-03-19T08:39:36.975Z,7.63
2023-03-19T08:42:05.369Z,7.76
2023-03-19T08:44:33.493Z,7.86
2023-03-19T08:47:03.712Z,7.98
2023-03-19T08:49:32.035Z,8.06
2023-03-19T08:52:00.218Z,8.20
2023-03-19T08:54:28.508Z,8.32
2023-03-19T08:56:56.753Z,8.45
2023-03-19T08:59:24.812Z,8.56
2023-03-19T09:01:53.820Z,8.64
2023-03-19T09:04:23.866Z,8.69
2023-03-19T09:06:53.820Z,8.79
2023-03-19T09:09:24.924Z,8.89
2023-03-19T09:11:53.025Z,8.96
2023-03-19T09:14:23.150Z,9.03
2023-03-19T09:16:51.327Z,9.12
2023-03-19T09:19:19.531Z,9.23
2023-03-19T09:21:49.074Z,9.29
2023-03-19T09:24:17.388Z,9.36
2023-03-19T09:26:45.829Z,9.44
2023-03-19T09:29:14.662Z,9.55
2023-03-19T09:31:42.774Z,9.62
2023-03-19T09:34:10.901Z,9.73
2023-03-19T09:36:39.074Z,9.81
2023-03-19T09:39:08.985Z,9.89
2023-03-19T09:41:44.677Z,9.96
2023-03-19T09:44:15.718Z,10.02
2023-03-19T09:46:50.301Z,10.04
2023-03-19T09:49:25.098Z,10.07
2023-03-19T09:51:56.141Z,10.09
2023-03-19T09:54:29.821Z,10.08
2023-03-19T09:56:58.626Z,10.05
2023-03-19T09:59:28.939Z,10.01
2023-03-19T10:02:06.617Z,9.99
2023-03-19T10:04:50.148Z,9.97
2023-03-19T10:07:36.944Z,9.99
2023-03-19T10:10:23.183Z,9.99
2023-03-19T10:13:01.620Z,10.02
2023-03-19T10:15:31.160Z,10.04
2023-03-19T10:18:04.703Z,10.08
2023-03-19T10:20:43.147Z,10.16
2023-03-19T10:23:30.290Z,10.16
2023-03-19T10:26:03.604Z,10.27
2023-03-19T10:28:32.392Z,10.31
2023-03-19T10:31:15.357Z,10.34
2023-03-19T10:33:46.646Z,10.37
2023-03-19T10:36:16.417Z,10.40
2023-03-19T10:38:45.491Z,10.40
2023-03-19T10:41:29.555Z,10.39
2023-03-19T10:44:01.328Z,10.43
2023-03-19T10:46:37.819Z,10.41
2023-03-19T10:49:06.295Z,10.35
2023-03-19T10:51:34.772Z,10.36
2023-03-19T10:54:03.084Z,10.35
2023-03-19T10:56:36.169Z,10.38
2023-03-19T10:59:07.048Z,10.38
2023-03-19T11:01:36.616Z,10.38
2023-03-19T11:04:14.815Z,10.39
2023-03-19T11:06:43.062Z,10.38
2023-03-19T11:09:24.378Z,10.39
2023-03-19T11:11:59.173Z,10.41
2023-03-19T11:14:36.031Z,10.41
2023-03-19T11:17:07.854Z,10.42
2023-03-19T11:19:42.189Z,10.44
2023-03-19T11:22:16.079Z,10.48
2023-03-19T11:24:51.331Z,10.57
2023-03-19T11:27:28.867Z,10.69
2023-03-19T11:29:57.288Z,10.80
2023-03-19T11:32:52.353Z,10.81
2023-03-19T11:35:25.401Z,10.88
2023-03-19T11:37:57.380Z,10.96
2023-03-19T11:40:37.549Z,11.06
2023-03-19T11:43:28.857Z,11.18
2023-03-19T11:46:07.639Z,11.26
2023-03-19T11:48:52.552Z,11.37
2023-03-19T11:51:24.237Z,11.47
2023-03-19T11:54:02.451Z,11.54
2023-03-19T11:56:37.890Z,11.66
2023-03-19T11:59:32.586Z,11.85
2023-03-19T12:02:34.289Z,12.12
2023-03-19T12:05:18.715Z,12.31
2023-03-19T12:08:00.390Z,12.50
2023-03-19T12:10:37.066Z,12.57
2023-03-19T12:13:15.484Z,12.53
2023-03-19T12:15:56.522Z,12.48
2023-03-19T12:18:39.263Z,12.46
2023-03-19T12:21:14.638Z,12.42
2023-03-19T12:23:58.091Z,12.28
2023-03-19T12:26:35.522Z,12.23
2023-03-19T12:29:14.993Z,12.23
2023-03-19T12:32:00.634Z,12.20
2023-03-19T12:34:35.072Z,12.14
2023-03-19T12:37:14.480Z,12.03
2023-03-19T12:39:50.073Z,11.95
2023-03-19T12:42:21.124Z,11.88
2023-03-19T12:44:54.542Z,11.83
2023-03-19T12:47:31.086Z,11.68
2023-03-19T12:50:02.823Z,11.60
2023-03-19T12:52:36.803Z,11.53
2023-03-19T12:55:13.969Z,11.45
2023-03-19T12:57:48.916Z,11.40
2023-03-19T13:00:24.116Z,11.32
2023-03-19T13:02:57.699Z,11.24
2023-03-19T13:05:34.252Z,11.21
2023-03-19T13:08:08.399Z,11.23
2023-03-19T13:10:37.061Z,11.26
2023-03-19T13:13:22.949Z,11.33
2023-03-19T13:15:55.926Z,11.43
2023-03-19T13:18:39.042Z,11.49
2023-03-19T13:21:23.153Z,11.49
2023-03-19T13:24:01.294Z,11.48
2023-03-19T13:26:29.805Z,11.47
2023-03-19T13:29:03.194Z,11.44
2023-03-19T13:31:36.720Z,11.47
2023-03-19T13:34:09.056Z,11.50
2023-03-19T13:36:39.809Z,11.54
2023-03-19T13:39:15.890Z,11.55
2023-03-19T13:41:55.367Z,11.57
2023-03-19T13:44:35.131Z,11.58
2023-03-19T13:47:04.333Z,11.56
2023-03-19T13:49:35.932Z,11.50
2023-03-19T13:52:22.794Z,11.49
2023-03-19T13:54:56.794Z,11.48
2023-03-19T13:57:36.145Z,11.42
2023-03-19T14:00:41.057Z,11.39
2023-03-19T14:03:21.625Z,11.22
2023-03-19T14:05:53.874Z,11.15
2023-03-19T14:08:26.132Z,11.10
2023-03-19T14:10:56.985Z,11.01
2023-03-19T14:13:33.793Z,10.96
2023-03-19T14:16:10.001Z,10.93
2023-03-19T14:18:44.251Z,10.89
2023-03-19T14:21:21.829Z,10.82
2023-03-19T14:23:57.811Z,10.78
2023-03-19T14:26:28.923Z,10.71
2023-03-19T14:29:02.058Z,10.63
2023-03-19T14:31:35.376Z,10.57
2023-03-19T14:34:09.123Z,10.49
2023-03-19T14:36:43.909Z,10.44
2023-03-19T14:39:21.758Z,10.36
2023-03-19T14:41:53.599Z,10.26
2023-03-19T14:45:09.211Z,10.25
2023-03-19T14:47:58.764Z,10.15
2023-03-19T14:50:51.393Z,10.11
2023-03-19T14:53:26.024Z,10.08
2023-03-19T14:55:55.145Z,10.10
2023-03-19T14:58:24.102Z,10.11
2023-03-19T15:00:55.272Z,10.11
2023-03-19T15:03:34.740Z,10.15
2023-03-19T15:06:05.314Z,10.11
2023-03-19T15:08:40.454Z,10.08
2023-03-19T15:11:23.096Z,10.12
2023-03-19T15:14:11.991Z,10.11
2023-03-19T15:16:48.769Z,10.09
2023-03-19T15:19:23.882Z,10.07
2023-03-19T15:21:51.971Z,10.05
2023-03-19T15:24:22.529Z,10.06
2023-03-19T15:26:51.064Z,9.98
2023-03-19T15:29:19.311Z,9.96
2023-03-19T15:32:02.473Z,9.95
2023-03-19T15:34:33.101Z,9.90
2023-03-19T15:37:05.028Z,9.88
2023-03-19T15:39:38.518Z,9.85
2023-03-19T15:42:07.208Z,9.84
2023-03-19T15:44:40.761Z,9.80
2023-03-19T15:47:13.338Z,9.77
2023-03-19T15:49:45.263Z,9.76
2023-03-19T15:52:17.749Z,9.75
2023-03-19T15:54:47.729Z,9.72
2023-03-19T15:57:18.765Z,9.73
2023-03-19T15:59:47.866Z,9.73
2023-03-19T16:02:23.352Z,9.77
2023-03-19T16:05:18.219Z,9.78
2023-03-19T16:07:44.005Z,9.75
2023-03-19T16:10:33.430Z,9.72
2023-03-19T16:13:04.175Z,9.73
2023-03-19T16:15:38.971Z,9.73
2023-03-19T16:18:27.006Z,9.72
2023-03-19T16:21:07.174Z,9.73
2023-03-19T16:23:37.677Z,9.72
2023-03-19T16:26:21.842Z,9.70
2023-03-19T16:28:58.424Z,9.57
2023-03-19T16:31:32.146Z,9.50
2023-03-19T16:34:00.959Z,9.41
2023-03-19T16:36:31.495Z,9.37
2023-03-19T16:39:15.582Z,9.42
2023-03-19T16:41:46.059Z,9.39
2023-03-19T16:44:17.785Z,9.38
2023-03-19T16:46:46.655Z,9.33
2023-03-19T16:49:14.801Z,9.31
2023-03-19T16:51:43.250Z,9.26
2023-03-19T16:54:14.106Z,9.21
2023-03-19T16:56:42.379Z,9.12
2023-03-19T16:59:20.391Z,9.01
2023-03-19T17:01:48.687Z,9.01
2023-03-19T17:04:17.664Z,8.93
2023-03-19T17:06:46.004Z,8.99
2023-03-19T17:09:14.486Z,8.93
2023-03-19T17:11:44.364Z,8.92
2023-03-19T17:14:20.036Z,8.88
2023-03-19T17:16:50.810Z,8.86
2023-03-19T17:19:20.653Z,8.74
2023-03-19T17:21:51.082Z,8.74
2023-03-19T17:24:24.700Z,8.75
2023-03-19T17:26:53.926Z,8.76
2023-03-19T17:29:25.513Z,8.81
2023-03-19T17:31:54.198Z,8.79
2023-03-19T17:34:25.432Z,8.82
2023-03-19T17:36:56.246Z,8.76
2023-03-19T17:39:25.098Z,8.77
2023-03-19T17:41:54.259Z,8.77
2023-03-19T17:44:23.954Z,8.80
2023-03-19T17:46:54.533Z,8.88
2023-03-19T17:49:26.255Z,8.87
2023-03-19T17:51:54.613Z,8.91
2023-03-19T17:54:22.810Z,8.95
2023-03-19T17:56:51.127Z,8.92
2023-03-19T17:59:19.225Z,8.96
2023-03-19T18:01:48.846Z,9.00
2023-03-19T18:04:20.070Z,9.05
2023-03-19T18:06:54.030Z,9.07
2023-03-19T18:09:23.835Z,9.06
2023-03-19T18:11:52.110Z,9.08
2023-03-19T18:14:20.521Z,9.10
2023-03-19T18:16:50.318Z,9.11
2023-03-19T18:19:22.467Z,9.10
2023-03-19T18:21:50.659Z,9.09
2023-03-19T18:24:18.837Z,9.08
2023-03-19T18:26:46.983Z,9.11
2023-03-19T18:29:16.468Z,9.10
2023-03-19T18:31:47.065Z,9.13
2023-03-19T18:34:17.815Z,9.13
2023-03-19T18:36:46.116Z,9.14
2023-03-19T18:39:15.315Z,9.18
2023-03-19T18:41:44.380Z,9.17
2023-03-19T18:44:13.959Z,9.19
2023-03-19T18:46:45.792Z,9.22
2023-03-19T18:49:22.816Z,9.25
2023-03-19T18:52:02.040Z,9.21
2023-03-19T18:54:32.502Z,9.19
2023-03-19T18:57:02.536Z,9.24
2023-03-19T18:59:32.891Z,9.25
2023-03-19T19:02:03.052Z,9.23
2023-03-19T19:04:33.364Z,9.26
2023-03-19T19:07:01.864Z,9.27
2023-03-19T19:09:29.897Z,9.26
2023-03-19T19:12:00.961Z,9.27
2023-03-19T19:14:29.771Z,9.29
2023-03-19T19:16:57.961Z,9.31
2023-03-19T19:19:29.784Z,9.33
2023-03-19T19:21:59.534Z,9.32
2023-03-19T19:24:27.753Z,9.29
2023-03-19T19:26:57.651Z,9.28
2023-03-19T19:29:29.180Z,9.30
2023-03-19T19:31:57.109Z,9.33
2023-03-19T19:34:25.450Z,9.34
2023-03-19T19:36:57.652Z,9.36
2023-03-19T19:39:27.298Z,9.36
2023-03-19T19:41:56.252Z,9.41
2023-03-19T19:44:24.603Z,9.44
2023-03-19T19:46:54.699Z,9.48
2023-03-19T19:49:23.751Z,9.50
2023-03-19T19:51:51.941Z,9.58
2023-03-19T19:54:21.541Z,9.62
2023-03-19T19:56:52.263Z,9.65
2023-03-19T19:59:23.868Z,9.66
2023-03-19T20:01:52.578Z,9.70
2023-03-19T20:04:21.879Z,9.71
2023-03-19T20:06:51.309Z,9.72
2023-03-19T20:09:19.503Z,9.68
2023-03-19T20:11:47.936Z,9.69
2023-03-19T20:14:17.684Z,9.65
2023-03-19T20:16:46.061Z,9.69
2023-03-19T20:19:19.302Z,9.70
2023-03-19T20:21:47.545Z,9.69
2023-03-19T20:24:15.728Z,9.65
2023-03-19T20:26:45.376Z,9.64
2023-03-19T20:29:17.351Z,9.66
2023-03-19T20:31:47.790Z,9.65
2023-03-19T20:34:28.654Z,9.67
2023-03-19T20:37:04.798Z,9.69
2023-03-19T20:39:32.870Z,9.70
2023-03-19T20:42:01.393Z,9.71
2023-03-19T20:44:31.006Z,9.72
2023-03-19T20:46:59.462Z,9.75
2023-03-19T20:49:29.251Z,9.73
2023-03-19T20:51:57.290Z,9.74
2023-03-19T20:54:25.549Z,9.73
2023-03-19T20:56:53.833Z,9.73
2023-03-19T20:59:22.123Z,9.72
2023-03-19T21:01:52.789Z,9.75
2023-03-19T21:04:21.148Z,9.73
2023-03-19T21:06:53.900Z,9.73
2023-03-19T21:09:22.701Z,9.75
2023-03-19T21:11:52.349Z,9.77
2023-03-19T21:14:23.359Z,9.81
2023-03-19T21:16:53.426Z,9.85
2023-03-19T21:19:21.475Z,9.89
2023-03-19T21:21:49.859Z,9.94
2023-03-19T21:24:20.649Z,9.99
2023-03-19T21:26:49.051Z,10.06
2023-03-19T21:29:22.802Z,10.08
2023-03-19T21:31:54.293Z,10.13
2023-03-19T21:34:22.469Z,10.18
2023-03-19T21:36:51.038Z,10.20
2023-03-19T21:39:19.461Z,10.23
2023-03-19T21:41:48.375Z,10.27
2023-03-19T21:44:19.915Z,10.27
2023-03-19T21:46:49.134Z,10.32
2023-03-19T21:49:19.065Z,10.33
2023-03-19T21:51:47.563Z,10.33
2023-03-19T21:54:15.850Z,10.34
2023-03-19T21:56:45.893Z,10.34
2023-03-19T21:59:16.346Z,10.39
2023-03-19T22:01:44.549Z,10.41
2023-03-19T22:04:12.906Z,10.41
2023-03-19T22:06:43.216Z,10.45
2023-03-19T22:09:11.968Z,10.46
2023-03-19T22:11:42.016Z,10.46
2023-03-19T22:14:17.823Z,10.47
2023-03-19T22:16:46.620Z,10.49
2023-03-19T22:19:15.971Z,10.51
2023-03-19T22:21:45.729Z,10.54
2023-03-19T22:24:14.074Z,10.55
2023-03-19T22:26:44.214Z,10.56
2023-03-19T22:29:16.887Z,10.58
2023-03-19T22:31:45.502Z,10.57
2023-03-19T22:34:16.620Z,10.60
2023-03-19T22:36:46.426Z,10.62
2023-03-19T22:39:15.076Z,10.63
2023-03-19T22:41:45.980Z,10.61
2023-03-19T22:44:21.096Z,10.62
2023-03-19T22:46:49.290Z,10.62
2023-03-19T22:49:18.306Z,10.66
2023-03-19T22:51:48.200Z,10.69
2023-03-19T22:54:16.449Z,10.68
2023-03-19T22:56:44.678Z,10.69
2023-03-19T22:59:12.842Z,10.72
2023-03-19T23:01:43.317Z,10.73
2023-03-19T23:04:21.466Z,10.73
2023-03-19T23:06:52.196Z,10.73
2023-03-19T23:09:22.559Z,10.76
2023-03-19T23:11:50.941Z,10.77
2023-03-19T23:14:29.108Z,10.78
2023-03-19T23:19:30.114Z,10.81
2023-03-19T23:22:01.482Z,10.83
2023-03-19T23:24:30.660Z,10.85
2023-03-19T23:27:00.755Z,10.85
2023-03-19T23:29:32.614Z,10.86
2023-03-19T23:32:01.853Z,10.89
2023-03-19T23:34:30.125Z,10.86
2023-03-19T23:37:00.016Z,10.86
2023-03-19T23:39:28.507Z,10.87
2023-03-19T23:41:59.416Z,10.85
2023-03-19T23:44:29.342Z,10.87
2023-03-19T23:47:01.057Z,10.86
2023-03-19T23:49:32.416Z,10.85
2023-03-19T23:52:04.516Z,10.85
2023-03-19T23:54:34.219Z,10.88
2023-03-19T23:57:04.556Z,10.87
2023-03-19T23:59:36.156Z,10.89
